Time;durP1;ratioP1;P1;durP2;ratioP2;P2;SDS_P1;SDS_P2;PMS_P1;PMS_P2;Temp;Humidity;BMP_temperature;BMP_pressure;BME280_temperature;BME280_humidity;BME280_pressure;Samples;Min_cycle;Max_cycle;Signal;HPM_P1;HPM_P2
2021/12/31 00:01:40;;;;;;;5.32;2.38;;;14.80;99.90;;;;;;5093966;28;20181;-61
2021/12/31 00:04:06;;;;;;;3.53;3.22;;;14.80;99.90;;;;;;5088353;28;20185;-63
2021/12/31 00:06:32;;;;;;;6.55;2.47;;;14.70;99.90;;;;;;5080126;28;20177;-62
2021/12/31 00:08:58;;;;;;;6.57;3.00;;;14.80;99.90;;;;;;5091218;28;20181;-63
2021/12/31 00:11:24;;;;;;;5.15;3.10;;;14.80;99.90;;;;;;5094221;28;20285;-62
2021/12/31 00:13:50;;;;;;;4.72;2.78;;;14.80;99.90;;;;;;5094944;28;20276;-62
2021/12/31 00:16:15;;;;;;;7.60;2.80;;;14.80;99.90;;;;;;5094107;28;20212;-62
2021/12/31 00:18:41;;;;;;;4.57;2.35;;;14.80;99.90;;;;;;5060409;28;20187;-62
2021/12/31 00:21:07;;;;;;;6.85;3.08;;;14.80;99.90;;;;;;5094629;28;20217;-62
2021/12/31 00:23:33;;;;;;;5.95;2.75;;;14.90;99.90;;;;;;5093910;28;20521;-63
2021/12/31 00:25:58;;;;;;;8.95;4.60;;;14.90;99.90;;;;;;5076908;28;20177;-62
2021/12/31 00:28:24;;;;;;;5.78;2.20;;;15.00;99.90;;;;;;5094053;28;20663;-62
2021/12/31 00:30:54;;;;;;;4.82;2.58;;;15.00;99.90;;;;;;5076667;28;20193;-62
2021/12/31 00:33:22;;;;;;;7.13;2.15;;;15.00;99.90;;;;;;5094766;28;20571;-62
2021/12/31 00:35:48;;;;;;;6.38;2.05;;;14.90;99.90;;;;;;5093311;28;20181;-62
2021/12/31 00:38:14;;;;;;;2.47;2.13;;;14.90;99.90;;;;;;5093838;28;20197;-62
2021/12/31 00:40:40;;;;;;;4.63;2.95;;;14.90;99.90;;;;;;5093433;28;20225;-63
2021/12/31 00:43:11;;;;;;;9.27;2.65;;;14.80;99.90;;;;;;5076975;28;20541;-63
2021/12/31 00:45:40;;;;;;;2.83;2.03;;;14.90;99.90;;;;;;5076104;28;20702;-63
2021/12/31 00:48:06;;;;;;;3.47;2.58;;;14.90;99.90;;;;;;5075906;28;20180;-62
2021/12/31 00:50:32;;;;;;;3.17;2.70;;;14.90;99.90;;;;;;5062789;28;20327;-62
2021/12/31 00:52:57;;;;;;;6.00;2.55;;;14.90;99.90;;;;;;5086117;28;20283;-62
2021/12/31 00:55:23;;;;;;;4.07;3.67;;;15.00;99.90;;;;;;5075045;28;20641;-62
2021/12/31 00:57:49;;;;;;;5.88;2.80;;;15.00;99.90;;;;;;5075854;28;20254;-62
2021/12/31 01:00:16;;;;;;;5.18;2.63;;;15.00;99.90;;;;;;5094226;28;20604;-62
2021/12/31 01:02:43;;;;;;;7.78;3.15;;;15.00;99.90;;;;;;5075458;28;20189;-63
2021/12/31 01:05:11;;;;;;;10.32;4.03;;;15.00;99.90;;;;;;5058179;28;20180;-62
2021/12/31 01:07:37;;;;;;;5.30;3.22;;;15.00;99.90;;;;;;5093490;28;20553;-62
2021/12/31 01:10:05;;;;;;;4.35;2.92;;;14.90;99.90;;;;;;5075232;28;20200;-63
2021/12/31 01:12:30;;;;;;;8.25;2.67;;;14.90;99.90;;;;;;5093638;28;20199;-62
2021/12/31 01:15:07;;;;;;;5.95;2.90;;;14.90;99.90;;;;;;5057390;28;20189;-62
2021/12/31 01:17:49;;;;;;;5.50;3.50;;;14.90;99.90;;;;;;5077370;28;20172;-62
2021/12/31 01:20:17;;;;;;;6.18;2.92;;;15.00;99.90;;;;;;5065928;28;20230;-63
2021/12/31 01:22:43;;;;;;;8.75;2.60;;;14.90;99.90;;;;;;5093658;28;20189;-63
2021/12/31 01:25:09;;;;;;;7.72;3.30;;;14.80;99.90;;;;;;5075633;28;20674;-63
2021/12/31 01:27:36;;;;;;;4.22;2.88;;;14.80;99.90;;;;;;5093346;28;20180;-63
2021/12/31 01:30:04;;;;;;;3.15;2.50;;;14.90;99.90;;;;;;5093634;28;20189;-62
2021/12/31 01:32:31;;;;;;;7.00;3.10;;;14.80;99.90;;;;;;5068457;28;20201;-63
2021/12/31 01:34:57;;;;;;;4.88;2.92;;;14.80;99.90;;;;;;5050146;28;20181;-62
2021/12/31 01:37:23;;;;;;;7.75;2.75;;;14.90;99.90;;;;;;5065094;28;20225;-63
2021/12/31 01:39:48;;;;;;;5.78;3.17;;;15.00;99.90;;;;;;5094037;28;20263;-63
2021/12/31 01:42:17;;;;;;;6.95;3.42;;;15.10;99.90;;;;;;5092533;28;20267;-63
2021/12/31 01:44:55;;;;;;;7.75;3.33;;;15.00;99.90;;;;;;5075738;28;20246;-65
2021/12/31 01:47:23;;;;;;;7.22;2.65;;;15.00;99.90;;;;;;5093139;28;20263;-63
2021/12/31 01:49:58;;;;;;;5.20;3.03;;;15.00;99.90;;;;;;5058199;28;20328;-63
2021/12/31 01:52:26;;;;;;;7.50;2.58;;;15.00;99.90;;;;;;5074930;28;20580;-63
2021/12/31 01:54:52;;;;;;;6.90;3.55;;;14.80;99.90;;;;;;5092370;28;20630;-63
2021/12/31 01:57:20;;;;;;;4.82;3.08;;;14.80;99.90;;;;;;5092977;28;20263;-63
2021/12/31 01:59:45;;;;;;;5.03;3.70;;;14.70;99.90;;;;;;5074381;28;20199;-63
2021/12/31 02:02:11;;;;;;;7.63;3.20;;;14.70;99.90;;;;;;5073799;28;20184;-63
2021/12/31 02:04:39;;;;;;;7.35;3.25;;;14.70;99.90;;;;;;5074369;28;20177;-63
2021/12/31 02:07:06;;;;;;;13.70;3.92;;;14.60;99.90;;;;;;5092288;28;20266;-62
2021/12/31 02:09:37;;;;;;;6.95;3.78;;;14.50;99.90;;;;;;5092473;28;20196;-62
2021/12/31 02:12:04;;;;;;;3.28;2.88;;;14.30;99.90;;;;;;5092722;28;20526;-62
2021/12/31 02:14:31;;;;;;;7.82;3.55;;;14.30;99.90;;;;;;5074675;28;20188;-63
2021/12/31 02:16:56;;;;;;;7.68;3.80;;;14.30;99.90;;;;;;5074723;28;20184;-63
2021/12/31 02:19:28;;;;;;;13.73;4.40;;;14.10;99.90;;;;;;5066680;28;20642;-63
2021/12/31 02:21:57;;;;;;;5.20;3.95;;;14.10;99.90;;;;;;5092526;28;20203;-62
2021/12/31 02:24:24;;;;;;;10.73;4.50;;;14.20;99.90;;;;;;5092919;28;20184;-63
2021/12/31 02:26:50;;;;;;;11.30;4.22;;;14.10;99.90;;;;;;5092784;28;20229;-62
2021/12/31 02:29:17;;;;;;;5.53;3.45;;;14.10;99.90;;;;;;5057687;28;20173;-62
2021/12/31 02:31:43;;;;;;;11.55;4.38;;;14.10;99.90;;;;;;5091762;28;20207;-63
2021/12/31 02:34:09;;;;;;;13.55;4.88;;;14.00;99.90;;;;;;5092003;28;20204;-63
2021/12/31 02:36:35;;;;;;;4.60;3.95;;;14.00;99.90;;;;;;5063906;28;20220;-62
2021/12/31 02:39:00;;;;;;;9.02;4.00;;;14.00;99.90;;;;;;5067131;28;20185;-63
2021/12/31 02:41:26;;;;;;;8.85;3.28;;;14.10;99.90;;;;;;5091781;28;20184;-63
2021/12/31 02:43:51;;;;;;;8.88;4.97;;;14.20;99.90;;;;;;5092298;28;20181;-63
2021/12/31 02:46:17;;;;;;;7.82;4.40;;;14.20;99.90;;;;;;5092152;28;20660;-63
2021/12/31 02:48:43;;;;;;;12.18;3.72;;;14.00;99.90;;;;;;5092493;28;20181;-63
2021/12/31 02:51:10;;;;;;;9.15;4.03;;;13.90;99.90;;;;;;5092195;28;20181;-62
2021/12/31 02:53:39;;;;;;;8.27;4.00;;;13.90;99.90;;;;;;5092055;28;20291;-64
2021/12/31 02:56:10;;;;;;;9.32;4.00;;;13.90;99.90;;;;;;5074101;28;20195;-62
2021/12/31 02:58:37;;;;;;;8.05;4.70;;;14.00;99.90;;;;;;5092337;28;20533;-63
2021/12/31 03:01:04;;;;;;;7.38;4.57;;;14.00;99.90;;;;;;5076118;28;20176;-62
2021/12/31 03:03:32;;;;;;;8.52;5.65;;;13.90;99.90;;;;;;5095570;28;20223;-62
2021/12/31 03:05:59;;;;;;;8.55;4.30;;;13.90;99.90;;;;;;5096651;28;20614;-64
2021/12/31 03:08:29;;;;;;;7.80;4.60;;;13.90;99.90;;;;;;5096125;28;20189;-63
2021/12/31 03:10:58;;;;;;;7.75;4.75;;;13.90;99.90;;;;;;5077709;28;20188;-64
2021/12/31 03:13:24;;;;;;;7.07;4.63;;;13.90;99.90;;;;;;5095788;28;20196;-62
2021/12/31 03:15:53;;;;;;;14.48;5.07;;;13.80;99.90;;;;;;5095924;28;20219;-63
2021/12/31 03:18:19;;;;;;;6.88;4.78;;;13.70;99.90;;;;;;5094977;28;20180;-63
2021/12/31 03:21:05;;;;;;;9.85;5.00;;;13.60;99.90;;;;;;5077864;28;20184;-62
2021/12/31 03:23:32;;;;;;;6.40;4.20;;;13.50;99.90;;;;;;5095172;28;20188;-62
2021/12/31 03:25:57;;;;;;;8.10;4.40;;;13.60;99.90;;;;;;5094387;28;20196;-63
2021/12/31 03:28:23;;;;;;;10.13;4.63;;;13.50;99.90;;;;;;5077020;28;20184;-63
2021/12/31 03:30:49;;;;;;;9.27;5.05;;;13.50;99.90;;;;;;5095915;28;20208;-62
2021/12/31 03:33:15;;;;;;;8.15;4.32;;;13.50;99.90;;;;;;5073328;28;20263;-62
2021/12/31 03:35:42;;;;;;;6.78;4.50;;;13.60;99.90;;;;;;5041506;28;20590;-63
2021/12/31 03:38:08;;;;;;;9.15;4.45;;;13.50;99.90;;;;;;5095322;28;20212;-63
2021/12/31 03:40:34;;;;;;;6.13;4.00;;;13.60;99.90;;;;;;5095765;28;20633;-63
2021/12/31 03:43:00;;;;;;;8.82;4.68;;;13.50;99.90;;;;;;5060085;28;20197;-63
2021/12/31 03:45:26;;;;;;;8.73;3.78;;;13.50;99.90;;;;;;5077408;28;20543;-62
2021/12/31 03:47:52;;;;;;;14.60;5.38;;;13.40;99.90;;;;;;5095474;28;20626;-63
2021/12/31 03:50:17;;;;;;;4.22;3.42;;;13.40;99.90;;;;;;5094041;28;20189;-63
2021/12/31 03:52:43;;;;;;;11.68;5.20;;;13.40;99.90;;;;;;5094783;28;20205;-62
2021/12/31 03:55:10;;;;;;;7.05;6.20;;;13.40;99.90;;;;;;5077356;28;20637;-63
2021/12/31 03:57:37;;;;;;;10.77;4.93;;;13.30;99.90;;;;;;5077037;28;20271;-63
2021/12/31 04:00:07;;;;;;;12.80;4.88;;;13.40;99.90;;;;;;5094432;28;20647;-63
2021/12/31 04:02:34;;;;;;;6.18;4.65;;;13.30;99.90;;;;;;5094113;28;20191;-63
2021/12/31 04:05:00;;;;;;;7.43;4.03;;;13.30;99.90;;;;;;5094829;28;20196;-63
2021/12/31 04:07:25;;;;;;;6.85;3.20;;;13.40;99.90;;;;;;5095652;28;20184;-63
2021/12/31 04:09:51;;;;;;;7.38;3.38;;;13.30;99.90;;;;;;5094877;28;20548;-62
2021/12/31 04:12:17;;;;;;;5.65;3.83;;;13.30;99.90;;;;;;5076089;28;20224;-63
2021/12/31 04:14:42;;;;;;;7.68;3.83;;;13.30;99.90;;;;;;5094774;28;20185;-63
2021/12/31 04:17:08;;;;;;;4.93;2.80;;;13.40;99.90;;;;;;5095001;28;20626;-63
2021/12/31 04:19:34;;;;;;;7.82;3.70;;;13.20;99.90;;;;;;5059157;28;20719;-63
2021/12/31 04:22:00;;;;;;;3.72;3.28;;;13.00;99.90;;;;;;5095022;28;20335;-63
2021/12/31 04:24:50;;;;;;;7.05;3.88;;;13.20;99.90;;;;;;5094686;28;20177;-63
2021/12/31 04:27:14;;;;;;;5.40;3.22;;;13.30;99.90;;;;;;5083630;28;20584;-63
2021/12/31 04:29:40;;;;;;;4.50;3.35;;;13.30;99.90;;;;;;5094191;28;20279;-63
2021/12/31 04:32:07;;;;;;;9.73;3.17;;;13.20;99.90;;;;;;5076471;28;20282;-63
2021/12/31 04:34:33;;;;;;;6.45;3.15;;;13.20;99.90;;;;;;5076689;28;20219;-63
2021/12/31 04:36:59;;;;;;;5.22;3.20;;;13.10;99.90;;;;;;5076712;28;20290;-63
2021/12/31 04:39:25;;;;;;;4.95;3.72;;;13.00;99.90;;;;;;5094468;28;20185;-63
2021/12/31 04:41:50;;;;;;;11.55;4.00;;;13.00;99.90;;;;;;5094139;28;20207;-63
2021/12/31 04:44:16;;;;;;;10.48;3.63;;;13.00;99.90;;;;;;5094317;28;20181;-63
2021/12/31 04:46:42;;;;;;;4.07;3.33;;;13.00;99.90;;;;;;5075871;28;20681;-63
2021/12/31 04:49:07;;;;;;;4.32;3.15;;;13.00;99.90;;;;;;5075473;28;20651;-63
2021/12/31 04:51:34;;;;;;;4.60;3.03;;;13.00;99.90;;;;;;5093832;28;20185;-63
2021/12/31 04:54:00;;;;;;;7.10;3.35;;;13.00;99.90;;;;;;5094195;28;20657;-62
2021/12/31 04:56:26;;;;;;;5.93;3.03;;;13.00;99.90;;;;;;5076425;28;20185;-63
2021/12/31 04:58:52;;;;;;;4.10;3.00;;;13.10;99.90;;;;;;5093473;28;20200;-63
2021/12/31 05:01:21;;;;;;;6.28;3.40;;;13.00;99.90;;;;;;5093949;28;20192;-63
2021/12/31 05:03:50;;;;;;;8.13;3.65;;;13.00;99.90;;;;;;5076108;28;20267;-63
2021/12/31 05:06:16;;;;;;;8.50;3.35;;;13.00;99.90;;;;;;5094213;28;20188;-63
2021/12/31 05:08:42;;;;;;;4.40;3.15;;;13.00;99.90;;;;;;5075642;28;20656;-63
2021/12/31 05:11:08;;;;;;;3.78;2.90;;;13.00;99.90;;;;;;5074595;28;20204;-63
2021/12/31 05:13:33;;;;;;;3.55;2.78;;;12.90;99.90;;;;;;5092450;28;20210;-64
2021/12/31 05:16:03;;;;;;;7.53;2.90;;;12.90;99.90;;;;;;5075552;28;20203;-63
2021/12/31 05:18:29;;;;;;;6.57;3.42;;;12.90;99.90;;;;;;5075517;28;20215;-63
2021/12/31 05:20:55;;;;;;;4.55;3.42;;;12.90;99.90;;;;;;5093393;28;20661;-63
2021/12/31 05:23:20;;;;;;;3.72;3.03;;;12.90;99.90;;;;;;5075161;28;20177;-63
2021/12/31 05:25:46;;;;;;;3.40;3.10;;;12.90;99.90;;;;;;5093495;28;20190;-63
2021/12/31 05:28:12;;;;;;;5.78;2.95;;;12.90;99.90;;;;;;5092380;28;20192;-63
2021/12/31 05:30:37;;;;;;;7.53;4.10;;;12.90;99.90;;;;;;5074456;28;20184;-63
2021/12/31 05:33:03;;;;;;;4.78;3.53;;;13.00;99.90;;;;;;5075460;28;20193;-63
2021/12/31 05:35:29;;;;;;;6.40;3.00;;;13.00;99.90;;;;;;5093344;28;20193;-63
2021/12/31 05:37:54;;;;;;;6.22;3.33;;;13.00;99.90;;;;;;5066120;28;20323;-62
2021/12/31 05:40:20;;;;;;;3.78;2.85;;;13.00;99.90;;;;;;5086499;28;20269;-63
2021/12/31 05:42:46;;;;;;;3.42;2.88;;;12.90;99.90;;;;;;5093173;28;20191;-62
2021/12/31 05:45:12;;;;;;;4.72;2.80;;;12.90;99.90;;;;;;5092608;28;20177;-63
2021/12/31 05:47:38;;;;;;;3.80;2.83;;;13.00;99.90;;;;;;5093044;28;20173;-63
2021/12/31 05:50:07;;;;;;;3.33;2.47;;;13.00;99.90;;;;;;5093070;28;20189;-63
2021/12/31 05:52:33;;;;;;;2.60;2.40;;;13.00;99.90;;;;;;5092197;28;20197;-64
2021/12/31 05:54:59;;;;;;;4.57;3.00;;;12.90;99.90;;;;;;5058386;28;20652;-63
2021/12/31 05:57:24;;;;;;;3.38;2.55;;;12.90;99.90;;;;;;5074818;28;20188;-64
2021/12/31 05:59:50;;;;;;;6.07;2.95;;;12.90;99.90;;;;;;5092886;28;20184;-63
2021/12/31 06:02:16;;;;;;;4.35;3.67;;;12.70;99.90;;;;;;5092690;28;20254;-63
2021/12/31 06:04:41;;;;;;;4.25;2.78;;;13.00;99.90;;;;;;5092361;28;20255;-62
2021/12/31 06:07:08;;;;;;;7.85;3.22;;;13.00;99.90;;;;;;5074563;28;20528;-63
2021/12/31 06:09:34;;;;;;;4.38;2.85;;;12.90;99.90;;;;;;5074958;28;20229;-63
2021/12/31 06:12:00;;;;;;;4.00;3.28;;;12.90;99.90;;;;;;5058268;28;20208;-63
2021/12/31 06:14:26;;;;;;;8.75;3.88;;;13.00;99.90;;;;;;5074162;28;20253;-62
2021/12/31 06:16:52;;;;;;;4.38;3.42;;;13.00;99.90;;;;;;5074646;28;20573;-64
2021/12/31 06:19:17;;;;;;;7.75;4.40;;;13.10;99.90;;;;;;5092903;28;20508;-63
2021/12/31 06:21:45;;;;;;;7.07;3.58;;;13.10;99.90;;;;;;5075166;28;20214;-63
2021/12/31 06:24:12;;;;;;;5.75;3.80;;;13.10;99.90;;;;;;5091872;28;20176;-63
2021/12/31 06:26:37;;;;;;;4.03;3.63;;;13.00;99.90;;;;;;5092716;28;20529;-63
2021/12/31 06:29:04;;;;;;;6.57;4.32;;;12.90;99.90;;;;;;5074458;28;20184;-63
2021/12/31 06:31:30;;;;;;;7.45;3.47;;;12.90;99.90;;;;;;5092492;28;20184;-63
2021/12/31 06:33:55;;;;;;;5.93;3.55;;;12.80;99.90;;;;;;5092203;28;20210;-63
2021/12/31 06:36:22;;;;;;;4.32;2.42;;;12.90;99.90;;;;;;5091294;28;20180;-63
2021/12/31 06:38:51;;;;;;;2.88;2.63;;;12.90;99.90;;;;;;5091298;28;20185;-64
2021/12/31 06:41:17;;;;;;;4.75;2.33;;;12.90;99.90;;;;;;5092046;28;20180;-63
2021/12/31 06:43:44;;;;;;;6.63;2.40;;;12.90;99.90;;;;;;5074378;28;20200;-63
2021/12/31 06:46:09;;;;;;;4.25;2.13;;;12.90;99.90;;;;;;5073724;28;20204;-63
2021/12/31 06:48:35;;;;;;;2.08;1.83;;;12.80;99.90;;;;;;5092525;28;20617;-63
2021/12/31 06:51:01;;;;;;;5.15;2.33;;;12.90;99.90;;;;;;5092014;28;20181;-63
2021/12/31 06:53:26;;;;;;;5.18;2.08;;;13.00;99.90;;;;;;5074135;28;20254;-63
2021/12/31 06:55:52;;;;;;;2.22;2.00;;;13.00;99.90;;;;;;5091984;28;20560;-63
2021/12/31 06:58:18;;;;;;;3.90;1.95;;;12.90;99.90;;;;;;5092537;28;20196;-62
2021/12/31 07:00:43;;;;;;;3.95;2.50;;;12.90;99.90;;;;;;5091913;28;20608;-64
2021/12/31 07:03:13;;;;;;;4.32;1.77;;;13.00;99.90;;;;;;5074000;28;20193;-63
2021/12/31 07:05:43;;;;;;;3.40;1.95;;;12.90;99.90;;;;;;5073837;28;20181;-63
2021/12/31 07:08:10;;;;;;;3.30;2.67;;;12.90;99.90;;;;;;5091788;28;20185;-64
2021/12/31 07:10:36;;;;;;;3.60;2.40;;;12.90;99.90;;;;;;5073640;28;20197;-63
2021/12/31 07:13:10;;;;;;;4.75;2.17;;;12.80;99.90;;;;;;5092028;28;20201;-63
2021/12/31 07:15:41;;;;;;;2.55;2.35;;;12.90;99.90;;;;;;5092310;28;20180;-63
2021/12/31 07:18:07;;;;;;;4.10;2.60;;;13.00;99.90;;;;;;5092004;28;20180;-63
2021/12/31 07:20:33;;;;;;;3.13;2.20;;;13.10;99.90;;;;;;5091986;28;20188;-63
2021/12/31 07:23:10;;;;;;;2.10;1.77;;;13.20;99.90;;;;;;5073203;28;20181;-62
2021/12/31 07:25:38;;;;;;;2.63;2.42;;;13.10;99.90;;;;;;5074339;28;20612;-63
2021/12/31 07:28:05;;;;;;;4.28;2.50;;;13.00;99.90;;;;;;5091945;28;20507;-63
2021/12/31 07:30:31;;;;;;;6.00;2.20;;;13.00;99.90;;;;;;5091982;28;20186;-63
2021/12/31 07:32:57;;;;;;;6.32;2.45;;;13.00;99.90;;;;;;5091600;28;20205;-63
2021/12/31 07:35:23;;;;;;;4.95;2.20;;;13.00;99.90;;;;;;5073962;28;20632;-62
2021/12/31 07:37:53;;;;;;;6.13;2.30;;;12.90;99.90;;;;;;5091139;28;20645;-64
2021/12/31 07:40:25;;;;;;;4.68;2.20;;;12.90;99.90;;;;;;5074749;28;20196;-63
2021/12/31 07:42:51;;;;;;;3.03;2.47;;;12.90;99.90;;;;;;5090975;28;20192;-63
2021/12/31 07:45:17;;;;;;;7.10;3.03;;;12.90;99.90;;;;;;5091932;28;20184;-63
2021/12/31 07:47:44;;;;;;;4.10;2.92;;;12.90;99.90;;;;;;5092337;28;20189;-63
2021/12/31 07:50:09;;;;;;;3.33;2.72;;;12.90;99.90;;;;;;5081129;28;20208;-63
2021/12/31 07:52:35;;;;;;;7.55;2.90;;;12.80;99.90;;;;;;5077207;28;20236;-63
2021/12/31 07:55:01;;;;;;;4.15;2.25;;;12.80;99.90;;;;;;5060181;28;20189;-63
2021/12/31 07:57:27;;;;;;;5.10;2.95;;;12.80;99.90;;;;;;5076493;28;20250;-63
2021/12/31 07:59:52;;;;;;;3.25;1.90;;;12.90;99.90;;;;;;5076284;28;20264;-63
2021/12/31 08:02:18;;;;;;;2.47;2.35;;;13.10;99.90;;;;;;5095193;28;20645;-63
2021/12/31 08:04:43;;;;;;;4.35;2.00;;;13.10;99.90;;;;;;5094458;28;20191;-63
2021/12/31 08:07:09;;;;;;;3.75;2.35;;;13.20;99.90;;;;;;5077143;28;20180;-63
2021/12/31 08:09:35;;;;;;;2.60;2.05;;;13.20;99.90;;;;;;5094059;28;20199;-63
2021/12/31 08:12:00;;;;;;;3.08;2.05;;;13.10;99.90;;;;;;5077020;28;20665;-63
2021/12/31 08:14:26;;;;;;;2.88;2.00;;;13.10;99.90;;;;;;5095181;28;20188;-63
2021/12/31 08:16:52;;;;;;;2.20;2.05;;;13.10;99.90;;;;;;5094230;28;20193;-63
2021/12/31 08:19:17;;;;;;;4.32;2.00;;;13.10;99.90;;;;;;5076297;28;20258;-64
2021/12/31 08:21:43;;;;;;;3.30;2.60;;;13.20;99.90;;;;;;5059769;28;20710;-63
2021/12/31 08:24:08;;;;;;;3.03;2.72;;;13.20;99.90;;;;;;5075768;28;20188;-64
2021/12/31 08:26:34;;;;;;;5.88;2.55;;;13.10;99.90;;;;;;5075994;28;20191;-63
2021/12/31 08:29:00;;;;;;;2.83;2.40;;;13.10;99.90;;;;;;5076604;28;20216;-63
2021/12/31 08:31:26;;;;;;;3.83;2.53;;;13.10;99.90;;;;;;5094628;28;20535;-63
2021/12/31 08:33:51;;;;;;;3.35;2.58;;;13.20;99.90;;;;;;5092798;28;20200;-64
2021/12/31 08:36:17;;;;;;;6.25;2.45;;;13.30;99.90;;;;;;5094542;28;20599;-63
2021/12/31 08:38:42;;;;;;;2.20;2.00;;;13.20;99.90;;;;;;5094517;28;20187;-63
2021/12/31 08:41:08;;;;;;;9.30;2.83;;;13.20;99.90;;;;;;5093179;28;20192;-63
2021/12/31 08:43:34;;;;;;;1.77;1.63;;;13.20;99.90;;;;;;5059569;28;20279;-64
2021/12/31 08:45:59;;;;;;;3.35;2.50;;;13.20;99.90;;;;;;5076170;28;20189;-63
2021/12/31 08:48:25;;;;;;;3.28;2.22;;;13.20;99.90;;;;;;5076428;28;20263;-63
2021/12/31 08:50:51;;;;;;;6.72;2.10;;;13.10;99.90;;;;;;5094077;28;20183;-63
2021/12/31 08:53:17;;;;;;;2.65;1.92;;;13.20;99.90;;;;;;5092011;28;20204;-63
2021/12/31 08:55:43;;;;;;;4.15;2.80;;;13.20;99.90;;;;;;5064722;28;20688;-63
2021/12/31 08:58:08;;;;;;;4.97;3.25;;;13.20;99.90;;;;;;5091982;28;20595;-62
2021/12/31 09:00:36;;;;;;;7.13;3.83;;;13.20;99.90;;;;;;5093817;28;20192;-63
2021/12/31 09:03:02;;;;;;;4.60;3.25;;;13.10;99.90;;;;;;5075707;28;20196;-63
2021/12/31 09:05:30;;;;;;;4.82;3.92;;;13.10;99.90;;;;;;5075938;28;20263;-63
2021/12/31 09:07:56;;;;;;;5.93;3.60;;;13.20;99.90;;;;;;5093399;28;20502;-63
2021/12/31 09:10:22;;;;;;;4.78;3.40;;;13.30;99.90;;;;;;5093527;28;20206;-63
2021/12/31 09:12:48;;;;;;;5.32;3.53;;;13.30;99.90;;;;;;5093731;28;20208;-63
2021/12/31 09:15:14;;;;;;;8.50;4.68;;;13.30;99.90;;;;;;5093582;28;20185;-64
2021/12/31 09:17:40;;;;;;;4.95;2.30;;;13.30;99.90;;;;;;5092968;28;20562;-63
2021/12/31 09:20:07;;;;;;;3.45;2.40;;;13.50;99.90;;;;;;5093618;28;20180;-63
2021/12/31 09:22:32;;;;;;;3.67;2.35;;;13.60;99.90;;;;;;5093523;28;20279;-63
2021/12/31 09:24:58;;;;;;;2.47;2.10;;;13.70;99.90;;;;;;5093970;28;20267;-63
2021/12/31 09:27:25;;;;;;;3.38;2.10;;;13.80;99.90;;;;;;5074792;28;20210;-63
2021/12/31 09:29:51;;;;;;;3.03;2.22;;;13.80;99.90;;;;;;5058766;28;20268;-63
2021/12/31 09:32:17;;;;;;;2.13;2.00;;;13.60;99.90;;;;;;5075165;28;20295;-63
2021/12/31 09:34:44;;;;;;;3.60;2.05;;;13.60;99.90;;;;;;5093931;28;20196;-64
2021/12/31 09:37:11;;;;;;;5.43;2.63;;;13.70;99.90;;;;;;5062649;28;20181;-64
2021/12/31 09:39:37;;;;;;;3.15;2.80;;;13.70;99.90;;;;;;5088123;28;20242;-63
2021/12/31 09:42:04;;;;;;;4.82;1.98;;;13.70;99.90;;;;;;5092085;28;20185;-63
2021/12/31 09:44:32;;;;;;;3.90;1.95;;;13.80;99.90;;;;;;5075051;28;20234;-63
2021/12/31 09:46:57;;;;;;;5.35;3.13;;;13.80;99.90;;;;;;5074602;28;20185;-64
2021/12/31 09:49:23;;;;;;;4.57;3.22;;;13.80;99.90;;;;;;5092728;28;20192;-64
2021/12/31 09:51:50;;;;;;;5.05;2.50;;;13.70;99.90;;;;;;5074744;28;20241;-64
2021/12/31 09:54:21;;;;;;;3.20;2.65;;;13.50;99.90;;;;;;5093010;28;20634;-64
2021/12/31 09:56:48;;;;;;;3.10;2.47;;;13.50;99.90;;;;;;5092870;28;20196;-64
2021/12/31 09:59:13;;;;;;;4.32;2.97;;;13.70;99.90;;;;;;5092747;28;20252;-65
2021/12/31 10:01:51;;;;;;;4.45;2.45;;;13.70;99.90;;;;;;5092231;28;20276;-64
2021/12/31 10:04:17;;;;;;;1.88;1.70;;;13.80;99.90;;;;;;5092882;28;20673;-65
2021/12/31 10:07:06;;;;;;;3.80;2.17;;;13.70;99.90;;;;;;5092786;28;20186;-64
2021/12/31 10:09:33;;;;;;;2.47;2.28;;;13.60;99.90;;;;;;5058865;28;20660;-64
2021/12/31 10:11:59;;;;;;;3.88;2.42;;;13.60;99.90;;;;;;5074194;28;20181;-68
2021/12/31 10:14:39;;;;;;;4.05;2.47;;;13.50;99.90;;;;;;5081753;28;20588;-65
2021/12/31 10:17:06;;;;;;;3.60;2.70;;;13.70;99.90;;;;;;5072985;28;20185;-64
2021/12/31 10:19:32;;;;;;;2.47;1.83;;;13.90;99.90;;;;;;5071961;28;20802;-65
2021/12/31 10:21:58;;;;;;;4.53;2.40;;;13.90;99.90;;;;;;5077019;28;20188;-64
2021/12/31 10:24:34;;;;;;;4.15;2.40;;;14.00;99.90;;;;;;5085597;28;20187;-65
2021/12/31 10:27:09;;;;;;;2.60;2.45;;;14.10;99.90;;;;;;5091989;28;20204;-65
2021/12/31 10:29:49;;;;;;;2.10;2.00;;;14.10;99.90;;;;;;5055077;28;20188;-66
2021/12/31 10:32:16;;;;;;;2.88;2.58;;;14.30;99.90;;;;;;5072657;28;20220;-66
2021/12/31 10:34:42;;;;;;;5.30;2.83;;;14.20;99.90;;;;;;5054634;28;20197;-66
2021/12/31 10:37:19;;;;;;;2.20;2.10;;;14.30;99.90;;;;;;5067643;28;20218;-66
2021/12/31 10:39:53;;;;;;;2.25;2.05;;;14.40;99.90;;;;;;5075000;28;20223;-67
2021/12/31 10:42:19;;;;;;;3.65;2.45;;;14.60;99.90;;;;;;5073476;28;20176;-67
2021/12/31 10:44:50;;;;;;;2.38;2.20;;;14.70;99.90;;;;;;5092339;28;20194;-67
2021/12/31 10:47:35;;;;;;;3.00;2.58;;;14.70;99.90;;;;;;5073371;28;20560;-67
2021/12/31 10:50:03;;;;;;;2.53;2.00;;;14.90;99.90;;;;;;5074256;28;20241;-65
2021/12/31 10:52:38;;;;;;;4.03;2.53;;;14.90;99.90;;;;;;5092524;28;20200;-67
2021/12/31 10:55:22;;;;;;;2.50;2.17;;;15.00;99.90;;;;;;5088915;28;20577;-68
2021/12/31 10:57:50;;;;;;;2.17;1.98;;;15.10;99.90;;;;;;5083165;28;20172;-68
2021/12/31 11:00:17;;;;;;;3.55;2.45;;;15.10;99.90;;;;;;5065969;28;20183;-67
2021/12/31 11:02:43;;;;;;;2.60;2.33;;;15.30;99.90;;;;;;5089671;28;20184;-66
2021/12/31 11:05:10;;;;;;;3.10;1.85;;;15.50;99.90;;;;;;5092255;28;20187;-66
2021/12/31 11:07:37;;;;;;;2.72;2.20;;;15.50;99.90;;;;;;5092050;28;20621;-67
2021/12/31 11:10:04;;;;;;;3.17;2.75;;;15.60;99.90;;;;;;5091771;28;20541;-66
2021/12/31 11:12:31;;;;;;;5.88;2.97;;;15.60;99.90;;;;;;5069666;28;20254;-66
2021/12/31 11:14:57;;;;;;;3.63;2.72;;;15.70;99.90;;;;;;5078612;28;20181;-67
2021/12/31 11:17:24;;;;;;;2.75;1.90;;;15.60;99.90;;;;;;5091547;28;20626;-67
2021/12/31 11:19:50;;;;;;;3.30;2.70;;;15.40;99.90;;;;;;5073956;28;20177;-66
2021/12/31 11:22:21;;;;;;;3.03;2.47;;;15.50;99.90;;;;;;5085889;28;20267;-66
2021/12/31 11:24:47;;;;;;;4.20;3.05;;;15.50;99.90;;;;;;5077175;28;20188;-67
2021/12/31 11:27:31;;;;;;;3.38;2.45;;;15.70;99.90;;;;;;5094779;28;20579;-67
2021/12/31 11:29:59;;;;;;;2.95;2.17;;;15.60;99.90;;;;;;5089321;28;20191;-68
2021/12/31 11:33:06;;;;;;;4.72;2.65;;;15.60;99.90;;;;;;5067687;28;20573;-66
2021/12/31 11:35:46;;;;;;;3.33;2.15;;;15.60;99.90;;;;;;4993128;28;20190;-66
2021/12/31 11:38:21;;;;;;;3.00;2.33;;;15.50;99.90;;;;;;5054885;28;20192;-66
2021/12/31 11:41:08;;;;;;;4.03;2.30;;;15.50;99.90;;;;;;5066208;28;20245;-65
2021/12/31 11:43:39;;;;;;;4.90;4.20;;;15.70;99.90;;;;;;5076477;28;20288;-65
2021/12/31 11:51:12;;;;;;;4.28;3.30;;;15.20;99.90;;;;;;5075509;28;20224;-64
2021/12/31 11:53:58;;;;;;;4.72;2.80;;;15.20;99.90;;;;;;5067234;28;20641;-66
2021/12/31 11:56:33;;;;;;;3.05;2.35;;;15.20;99.90;;;;;;5074729;28;20235;-67
2021/12/31 11:59:24;;;;;;;3.47;2.78;;;15.10;99.90;;;;;;5079788;28;20177;-65
2021/12/31 12:01:52;;;;;;;2.80;2.33;;;15.30;99.90;;;;;;5071474;28;20196;-65
2021/12/31 12:04:25;;;;;;;4.53;2.47;;;15.40;99.90;;;;;;5081504;28;20192;-66
2021/12/31 12:07:01;;;;;;;4.60;2.47;;;15.50;99.90;;;;;;5048235;28;20181;-66
2021/12/31 12:09:36;;;;;;;9.65;3.20;;;15.50;99.90;;;;;;5093330;28;20199;-66
2021/12/31 12:12:10;;;;;;;3.13;2.25;;;15.40;99.90;;;;;;5062871;28;20230;-66
2021/12/31 12:15:25;;;;;;;4.40;2.30;;;15.10;99.90;;;;;;5089411;28;20196;-66
2021/12/31 12:17:51;;;;;;;6.07;2.65;;;15.10;99.90;;;;;;5075829;28;20205;-66
2021/12/31 12:20:22;;;;;;;5.28;3.20;;;15.00;99.90;;;;;;5082934;28;20619;-68
2021/12/31 12:22:56;;;;;;;2.92;2.53;;;15.00;99.90;;;;;;5072730;28;20181;-67
2021/12/31 12:25:25;;;;;;;5.25;2.95;;;15.10;99.90;;;;;;5076345;28;20208;-67
2021/12/31 12:28:04;;;;;;;3.38;2.70;;;15.00;99.90;;;;;;5094389;28;20257;-67
2021/12/31 12:30:32;;;;;;;2.45;2.22;;;14.90;99.90;;;;;;5094086;28;20172;-68
2021/12/31 12:33:15;;;;;;;2.92;2.35;;;14.80;99.90;;;;;;5093249;28;20208;-66
2021/12/31 12:35:47;;;;;;;2.72;2.53;;;14.80;99.90;;;;;;5092675;28;20192;-67
2021/12/31 12:38:24;;;;;;;3.13;2.63;;;15.00;99.90;;;;;;5094680;28;20267;-67
2021/12/31 12:41:08;;;;;;;4.50;3.30;;;15.10;99.90;;;;;;5094102;28;20184;-67
2021/12/31 12:43:45;;;;;;;2.60;2.17;;;15.40;99.90;;;;;;5093312;28;20184;-67
2021/12/31 12:46:13;;;;;;;4.97;2.58;;;15.60;99.90;;;;;;5089707;28;20536;-67
2021/12/31 12:48:51;;;;;;;4.47;2.33;;;15.70;99.90;;;;;;5076189;28;20172;-67
2021/12/31 12:51:30;;;;;;;3.97;2.70;;;15.80;99.90;;;;;;5094323;28;20177;-68
2021/12/31 12:53:57;;;;;;;2.05;1.83;;;15.80;99.90;;;;;;5093814;28;20564;-67
2021/12/31 12:56:23;;;;;;;7.13;2.75;;;15.80;99.90;;;;;;5094151;28;20188;-67